createdAt,value
2023-03-22T00:01:20.518Z,100791.78
2023-03-22T00:03:49.919Z,100799.78
2023-03-22T00:06:18.129Z,100793.63
2023-03-22T00:08:48.344Z,100799.72
2023-03-22T00:11:16.146Z,100792.63
2023-03-22T00:13:44.123Z,100791.78
2023-03-22T00:16:13.192Z,100794.44
2023-03-22T00:18:41.338Z,100798.91
2023-03-22T00:21:13.697Z,100793.66
2023-03-22T00:23:41.800Z,100788.56
2023-03-22T00:26:10.494Z,100791.03
2023-03-22T00:28:39.813Z,100792.75
2023-03-22T00:31:08.016Z,100782.25
2023-03-22T00:33:36.538Z,100802.00
2023-03-22T00:36:09.723Z,100789.75
2023-03-22T00:38:45.201Z,100781.06
2023-03-22T00:41:17.232Z,100775.84
2023-03-22T00:43:46.658Z,100778.66
2023-03-22T00:46:16.088Z,100777.72
2023-03-22T00:48:44.135Z,100780.34
2023-03-22T00:51:12.905Z,100775.91
2023-03-22T00:53:43.257Z,100770.00
2023-03-22T00:56:16.221Z,100760.84
2023-03-22T00:58:56.343Z,100766.09
2023-03-22T01:01:24.040Z,100765.31
2023-03-22T01:03:51.737Z,100763.53
2023-03-22T01:06:19.341Z,100759.44
2023-03-22T01:08:47.300Z,100762.16
2023-03-22T01:11:18.272Z,100761.22
2023-03-22T01:13:48.176Z,100762.88
2023-03-22T01:16:17.108Z,100756.94
2023-03-22T01:18:45.261Z,100762.47
2023-03-22T01:21:13.057Z,100769.53
2023-03-22T01:23:41.197Z,100766.75
2023-03-22T01:26:08.750Z,100765.19
2023-03-22T01:28:37.257Z,100764.34
2023-03-22T01:31:05.267Z,100759.69
2023-03-22T01:33:32.835Z,100759.78
2023-03-22T01:36:00.582Z,100756.19
2023-03-22T01:38:29.396Z,100758.91
2023-03-22T01:40:59.726Z,100756.22
2023-03-22T01:43:29.939Z,100755.22
2023-03-22T01:45:59.352Z,100759.72
2023-03-22T01:48:46.527Z,100756.22
2023-03-22T01:51:19.716Z,100764.22
2023-03-22T01:54:09.770Z,100763.13
2023-03-22T01:56:40.850Z,100757.84
2023-03-22T01:59:14.412Z,100756.16
2023-03-22T02:02:02.919Z,100759.59
2023-03-22T02:04:39.402Z,100760.44
2023-03-22T02:07:15.547Z,100766.69
2023-03-22T02:09:46.750Z,100760.63
2023-03-22T02:12:35.709Z,100764.97
2023-03-22T02:15:43.607Z,100767.56
2023-03-22T02:19:11.334Z,100760.31
2023-03-22T02:21:53.842Z,100756.94
2023-03-22T02:24:58.508Z,100751.50
2023-03-22T02:27:35.095Z,100753.16
2023-03-22T02:30:19.490Z,100749.63
2023-03-22T02:33:13.182Z,100744.94
2023-03-22T02:36:07.937Z,100741.53
2023-03-22T02:39:06.828Z,100748.44
2023-03-22T02:42:02.050Z,100743.22
2023-03-22T02:44:44.133Z,100748.50
2023-03-22T02:47:25.515Z,100747.72
2023-03-22T02:50:07.910Z,100737.88
2023-03-22T02:52:42.038Z,100747.47
2023-03-22T02:55:20.671Z,100750.03
2023-03-22T02:58:03.839Z,100737.97
2023-03-22T03:00:33.693Z,100752.09
2023-03-22T03:03:11.575Z,100753.97
2023-03-22T03:05:44.943Z,100750.50
2023-03-22T03:08:16.745Z,100749.88
2023-03-22T03:10:45.676Z,100752.41
2023-03-22T03:13:15.830Z,100744.75
2023-03-22T03:15:46.340Z,100741.28
2023-03-22T03:18:19.143Z,100748.31
2023-03-22T03:21:25.101Z,100747.41
2023-03-22T03:24:03.982Z,100755.75
2023-03-22T03:26:53.509Z,100758.53
2023-03-22T03:29:38.253Z,100767.38
2023-03-22T03:32:14.320Z,100770.06
2023-03-22T03:34:57.323Z,100759.50
2023-03-22T03:37:34.569Z,100766.19
2023-03-22T03:40:11.067Z,100759.16
2023-03-22T03:42:42.943Z,100768.66
2023-03-22T03:45:11.054Z,100766.09
2023-03-22T03:47:39.575Z,100759.19
2023-03-22T03:50:08.508Z,100767.81
2023-03-22T03:52:36.249Z,100762.72
2023-03-22T03:55:03.927Z,100759.34
2023-03-22T03:57:33.687Z,100758.47
2023-03-22T04:00:01.401Z,100767.97
2023-03-22T04:03:01.213Z,100771.38
2023-03-22T04:05:51.852Z,100763.38
2023-03-22T04:08:19.426Z,100770.38
2023-03-22T04:10:51.944Z,100759.78
2023-03-22T04:13:25.208Z,100775.50
2023-03-22T04:15:57.511Z,100757.16
2023-03-22T04:18:29.796Z,100764.25
2023-03-22T04:21:00.242Z,100753.91
2023-03-22T04:23:33.237Z,100756.63
2023-03-22T04:26:00.946Z,100765.25
2023-03-22T04:28:39.484Z,100769.88
2023-03-22T04:31:08.577Z,100755.22
2023-03-22T04:33:55.034Z,100755.84
2023-03-22T04:36:31.260Z,100750.38
2023-03-22T04:39:28.222Z,100763.50
2023-03-22T04:42:05.725Z,100767.94
2023-03-22T04:44:34.800Z,100763.63
2023-03-22T04:47:03.661Z,100760.09
2023-03-22T04:49:31.530Z,100766.38
2023-03-22T04:51:59.391Z,100754.28
2023-03-22T04:54:32.520Z,100764.84
2023-03-22T04:57:01.023Z,100755.25
2023-03-22T04:59:32.334Z,100756.03
2023-03-22T05:02:00.384Z,100755.94
2023-03-22T05:04:32.909Z,100764.63
2023-03-22T05:07:07.094Z,100770.75
2023-03-22T05:09:43.963Z,100767.34
2023-03-22T05:12:12.443Z,100769.97
2023-03-22T05:14:47.080Z,100765.53
2023-03-22T05:17:17.672Z,100767.34
2023-03-22T05:19:45.903Z,100766.41
2023-03-22T05:22:14.111Z,100769.91
2023-03-22T05:24:46.312Z,100775.09
2023-03-22T05:27:30.969Z,100779.63
2023-03-22T05:30:16.854Z,100788.34
2023-03-22T05:32:50.396Z,100782.28
2023-03-22T05:35:18.622Z,100789.16
2023-03-22T05:37:53.901Z,100786.53
2023-03-22T05:40:22.470Z,100784.78
2023-03-22T05:42:51.016Z,100788.97
2023-03-22T05:45:26.202Z,100793.91
2023-03-22T05:48:10.474Z,100791.28
2023-03-22T05:50:38.299Z,100786.53
2023-03-22T05:53:06.456Z,100793.13
2023-03-22T05:55:48.745Z,100786.72
2023-03-22T05:58:19.305Z,100788.41
2023-03-22T06:00:51.715Z,100782.25
2023-03-22T06:03:25.644Z,100791.19
2023-03-22T06:05:58.574Z,100792.03
2023-03-22T06:08:39.586Z,100804.47
2023-03-22T06:11:08.430Z,100796.53
2023-03-22T06:13:37.558Z,100797.25
2023-03-22T06:16:06.422Z,100800.66
2023-03-22T06:18:34.295Z,100806.78
2023-03-22T06:21:09.696Z,100802.59
2023-03-22T06:23:38.078Z,100799.34
2023-03-22T06:26:06.089Z,100798.22
2023-03-22T06:28:36.132Z,100804.91
2023-03-22T06:31:11.703Z,100809.69
2023-03-22T06:33:58.458Z,100810.16
2023-03-22T06:36:32.053Z,100807.47
2023-03-22T06:39:06.477Z,100814.25
2023-03-22T06:41:34.598Z,100812.97
2023-03-22T06:44:03.032Z,100809.16
2023-03-22T06:46:51.323Z,100818.34
2023-03-22T06:49:47.793Z,100819.81
2023-03-22T06:52:20.775Z,100807.94
2023-03-22T06:54:48.257Z,100811.00
2023-03-22T06:57:15.770Z,100814.94
2023-03-22T06:59:43.688Z,100816.81
2023-03-22T07:02:13.062Z,100817.88
2023-03-22T07:04:46.352Z,100822.34
2023-03-22T07:07:14.075Z,100826.09
2023-03-22T07:09:41.731Z,100828.06
2023-03-22T07:12:10.016Z,100822.28
2023-03-22T07:14:37.876Z,100828.72
2023-03-22T07:17:25.226Z,100823.69
2023-03-22T07:19:53.306Z,100824.69
2023-03-22T07:22:24.935Z,100834.53
2023-03-22T07:24:58.301Z,100833.44
2023-03-22T07:27:29.649Z,100837.19
2023-03-22T07:29:57.418Z,100836.25
2023-03-22T07:32:25.115Z,100846.00
2023-03-22T07:35:04.381Z,100856.00
2023-03-22T07:37:32.866Z,100851.53
2023-03-22T07:40:00.832Z,100856.66
2023-03-22T07:42:31.808Z,100863.13
2023-03-22T07:45:20.069Z,100865.34
2023-03-22T07:47:50.710Z,100869.31
2023-03-22T07:50:18.713Z,100869.22
2023-03-22T07:52:49.755Z,100868.50
2023-03-22T07:55:17.517Z,100873.47
2023-03-22T07:57:44.973Z,100873.59
2023-03-22T08:00:15.657Z,100867.16
2023-03-22T08:02:46.683Z,100875.28
2023-03-22T08:05:29.814Z,100878.66
2023-03-22T08:08:01.539Z,100881.25
2023-03-22T08:10:28.961Z,100885.03
2023-03-22T08:12:56.621Z,100881.63
2023-03-22T08:15:27.016Z,100874.50
2023-03-22T08:17:58.078Z,100882.66
2023-03-22T08:20:32.777Z,100891.75
2023-03-22T08:23:04.635Z,100889.25
2023-03-22T08:25:59.285Z,100887.00
2023-03-22T08:28:26.857Z,100892.69
2023-03-22T08:30:57.846Z,100892.13
2023-03-22T08:33:26.520Z,100899.94
2023-03-22T08:36:08.547Z,100890.75
2023-03-22T08:38:46.064Z,100878.56
2023-03-22T08:41:16.288Z,100894.72
2023-03-22T08:43:44.407Z,100896.41
2023-03-22T08:46:12.126Z,100881.63
2023-03-22T08:48:41.688Z,100888.38
2023-03-22T08:51:18.339Z,100895.09
2023-03-22T08:54:02.179Z,100879.59
2023-03-22T08:56:48.318Z,100891.97
2023-03-22T08:59:30.525Z,100889.22
2023-03-22T09:02:17.418Z,100888.44
2023-03-22T09:04:45.143Z,100886.31
2023-03-22T09:07:12.666Z,100890.97
2023-03-22T09:09:41.177Z,100896.44
2023-03-22T09:12:09.722Z,100896.56
2023-03-22T09:14:37.317Z,100894.53
2023-03-22T09:17:05.708Z,100897.88
2023-03-22T09:19:35.236Z,100899.34
2023-03-22T09:22:03.498Z,100893.28
2023-03-22T09:24:39.531Z,100896.50
2023-03-22T09:27:07.134Z,100892.16
2023-03-22T09:29:34.616Z,100899.09
2023-03-22T09:32:06.473Z,100899.16
2023-03-22T09:34:36.310Z,100900.47
2023-03-22T09:37:06.531Z,100905.75
2023-03-22T09:39:49.299Z,100907.28
2023-03-22T09:42:34.066Z,100911.94
2023-03-22T09:45:07.081Z,100896.81
2023-03-22T09:47:44.716Z,100890.84
2023-03-22T09:50:21.502Z,100883.56
2023-03-22T09:52:50.493Z,100884.06
2023-03-22T09:55:22.214Z,100900.75
2023-03-22T09:58:02.925Z,100882.94
2023-03-22T10:00:48.416Z,100886.28
2023-03-22T10:03:27.682Z,100887.31
2023-03-22T10:06:05.653Z,100874.34
2023-03-22T10:08:51.620Z,100878.53
2023-03-22T10:11:44.364Z,100879.41
2023-03-22T10:14:35.120Z,100871.47
2023-03-22T10:17:08.717Z,100875.00
2023-03-22T10:19:59.304Z,100875.78
2023-03-22T10:22:35.452Z,100876.38
2023-03-22T10:25:05.919Z,100871.00
2023-03-22T10:27:34.958Z,100870.00
2023-03-22T10:30:26.183Z,100875.97
2023-03-22T10:33:01.705Z,100862.88
2023-03-22T10:35:30.838Z,100878.88
2023-03-22T10:38:02.307Z,100859.28
2023-03-22T10:40:33.701Z,100868.53
2023-03-22T10:43:17.369Z,100865.69
2023-03-22T10:45:45.195Z,100865.94
2023-03-22T10:48:38.697Z,100862.09
2023-03-22T10:51:07.298Z,100855.91
2023-03-22T10:53:42.520Z,100854.75
2023-03-22T10:56:13.828Z,100840.59
2023-03-22T10:58:41.457Z,100848.75
2023-03-22T11:01:12.529Z,100842.63
2023-03-22T11:03:41.772Z,100842.69
2023-03-22T11:06:37.313Z,100845.13
2023-03-22T11:09:24.016Z,100845.50
2023-03-22T11:12:00.208Z,100840.06
2023-03-22T11:14:36.898Z,100834.19
2023-03-22T11:17:08.888Z,100833.97
2023-03-22T11:19:58.696Z,100826.84
2023-03-22T11:22:40.279Z,100829.84
2023-03-22T11:25:33.042Z,100830.22
2023-03-22T11:28:09.194Z,100828.63
2023-03-22T11:30:41.876Z,100828.50
2023-03-22T11:33:28.636Z,100822.63
2023-03-22T11:36:00.899Z,100819.47
2023-03-22T11:38:38.457Z,100815.81
2023-03-22T11:41:32.681Z,100810.81
2023-03-22T11:44:08.485Z,100821.19
2023-03-22T11:46:45.402Z,100809.31
2023-03-22T11:49:24.088Z,100802.66
2023-03-22T11:51:53.927Z,100802.75
2023-03-22T11:54:36.603Z,100802.66
2023-03-22T11:57:10.315Z,100792.13
2023-03-22T11:59:55.377Z,100789.06
2023-03-22T12:02:34.674Z,100790.53
2023-03-22T12:05:09.407Z,100779.25
2023-03-22T12:07:41.205Z,100784.00
2023-03-22T12:10:17.800Z,100783.94
2023-03-22T12:12:56.011Z,100778.28
2023-03-22T12:15:53.527Z,100777.94
2023-03-22T12:19:15.685Z,100778.72
2023-03-22T12:22:25.060Z,100773.84
2023-03-22T12:25:03.744Z,100766.22
2023-03-22T12:27:50.140Z,100772.63
2023-03-22T12:33:46.615Z,100753.16
2023-03-22T12:36:24.874Z,100756.22
2023-03-22T12:39:09.348Z,100754.03
2023-03-22T12:41:51.991Z,100756.56
2023-03-22T12:44:44.915Z,100745.69
2023-03-22T12:47:33.795Z,100748.22
2023-03-22T12:50:46.004Z,100732.78
2023-03-22T12:56:07.883Z,100735.56
2023-03-22T12:58:43.341Z,100728.22
2023-03-22T13:01:34.207Z,100735.97
2023-03-22T13:04:32.105Z,100730.44
2023-03-22T13:07:30.897Z,100723.03
2023-03-22T13:10:21.990Z,100729.75
2023-03-22T13:13:12.937Z,100720.09
2023-03-22T13:16:18.729Z,100724.88
2023-03-22T13:18:48.641Z,100719.53
2023-03-22T13:21:16.560Z,100706.06
2023-03-22T13:24:36.743Z,100711.38
2023-03-22T13:27:35.521Z,100700.53
2023-03-22T13:30:09.712Z,100706.50
2023-03-22T13:32:37.868Z,100696.50
2023-03-22T13:35:38.240Z,100694.66
2023-03-22T13:38:29.696Z,100689.28
2023-03-22T13:41:07.807Z,100693.63
2023-03-22T13:43:50.260Z,100691.53
2023-03-22T13:46:17.958Z,100691.00
2023-03-22T13:48:48.831Z,100688.34
2023-03-22T13:51:25.611Z,100694.97
2023-03-22T13:54:21.006Z,100699.38
2023-03-22T13:56:54.366Z,100684.06
2023-03-22T13:59:28.045Z,100687.56
2023-03-22T14:02:07.629Z,100690.47
2023-03-22T14:04:52.979Z,100689.66
2023-03-22T14:07:26.250Z,100682.09
2023-03-22T14:09:59.186Z,100668.13
2023-03-22T14:12:42.948Z,100666.16
2023-03-22T14:15:17.479Z,100656.72
2023-03-22T14:18:05.319Z,100659.13
2023-03-22T14:20:37.137Z,100652.41
